Time;durP1;ratioP1;P1;durP2;ratioP2;P2;SDS_P1;SDS_P2;PMS_P1;PMS_P2;Temp;Humidity;BMP_temperature;BMP_pressure;BME280_temperature;BME280_humidity;BME280_pressure;Samples;Min_cycle;Max_cycle;Signal;HPM_P1;HPM_P2
2022/04/01 00:01:56;;;;;;;;;25.33;22.67;;;;;;;;4971187;28;28312;-89
2022/04/01 00:04:22;;;;;;;;;25.75;24.00;;;;;;;;4971219;28;28455;-87
2022/04/01 00:06:47;;;;;;;;;30.25;30.25;;;;;;;;4953108;28;28830;-87
2022/04/01 00:09:12;;;;;;;;;33.50;31.75;;;;;;;;4969049;28;28670;-88
2022/04/01 00:11:37;;;;;;;;;35.67;32.00;;;;;;;;4962918;28;28480;-87
2022/04/01 00:14:03;;;;;;;;;32.75;29.50;;;;;;;;4953572;28;28681;-87
2022/04/01 00:16:28;;;;;;;;;27.00;27.00;;;;;;;;4970871;28;28385;-87
2022/04/01 00:18:53;;;;;;;;;30.33;29.33;;;;;;;;4965243;28;28465;-87
2022/04/01 00:21:19;;;;;;;;;26.25;24.25;;;;;;;;4951344;28;28532;-89
2022/04/01 00:23:44;;;;;;;;;25.25;25.25;;;;;;;;4952255;28;28509;-88
2022/04/01 00:26:09;;;;;;;;;25.33;21.67;;;;;;;;4970398;28;28743;-88
2022/04/01 00:28:34;;;;;;;;;18.50;18.50;;;;;;;;4952260;28;28814;-87
2022/04/01 00:31:00;;;;;;;;;29.33;24.33;;;;;;;;4970172;28;29301;-88
2022/04/01 00:33:25;;;;;;;;;19.00;19.00;;;;;;;;4970696;28;28390;-88
2022/04/01 00:35:50;;;;;;;;;25.00;25.00;;;;;;;;4953117;28;29773;-88
2022/04/01 00:38:15;;;;;;;;;24.00;24.00;;;;;;;;4953056;28;28412;-86
2022/04/01 00:40:41;;;;;;;;;23.33;20.00;;;;;;;;4970584;28;28469;-87
2022/04/01 00:43:07;;;;;;;;;21.25;19.25;;;;;;;;4970005;28;28399;-86
2022/04/01 00:45:32;;;;;;;;;16.75;16.00;;;;;;;;4970414;28;28240;-87
2022/04/01 00:48:01;;;;;;;;;18.25;16.50;;;;;;;;4970464;28;28216;-87
2022/04/01 00:50:27;;;;;;;;;22.25;19.00;;;;;;;;4970316;28;28454;-87
2022/04/01 00:52:53;;;;;;;;;18.75;18.75;;;;;;;;4961444;28;28403;-86
2022/04/01 00:55:18;;;;;;;;;18.50;16.50;;;;;;;;4951139;28;28373;-86
2022/04/01 00:57:43;;;;;;;;;20.00;18.50;;;;;;;;4950724;28;28450;-86
2022/04/01 01:00:09;;;;;;;;;22.75;20.00;;;;;;;;4950997;28;28739;-88
2022/04/01 01:02:34;;;;;;;;;22.00;20.25;;;;;;;;4933379;28;28379;-87
2022/04/01 01:05:00;;;;;;;;;18.75;17.25;;;;;;;;4933502;28;28347;-89
2022/04/01 01:07:25;;;;;;;;;16.25;15.75;;;;;;;;4950573;28;28421;-87
2022/04/01 01:09:50;;;;;;;;;19.67;18.67;;;;;;;;4950776;28;28406;-87
2022/04/01 01:12:17;;;;;;;;;20.25;20.25;;;;;;;;4955276;28;28513;-88
2022/04/01 01:14:44;;;;;;;;;19.00;19.00;;;;;;;;4952586;28;28584;-88
2022/04/01 01:17:11;;;;;;;;;17.50;17.50;;;;;;;;4969373;28;28362;-87
2022/04/01 01:19:37;;;;;;;;;18.80;17.00;;;;;;;;4969769;28;28560;-87
2022/04/01 01:22:02;;;;;;;;;18.25;18.25;;;;;;;;4948502;28;28510;-87
2022/04/01 01:24:35;;;;;;;;;18.00;12.00;;;;;;;;4969907;28;28489;-88
2022/04/01 01:27:01;;;;;;;;;17.75;16.25;;;;;;;;4952548;28;28292;-87
2022/04/01 01:29:30;;;;;;;;;12.75;12.75;;;;;;;;4965004;28;28550;-87
2022/04/01 01:31:58;;;;;;;;;10.80;10.80;;;;;;;;4950392;28;28576;-88
2022/04/01 01:34:24;;;;;;;;;11.80;11.80;;;;;;;;4950157;28;29272;-88
2022/04/01 01:36:50;;;;;;;;;9.00;9.00;;;;;;;;4950438;28;28380;-88
2022/04/01 01:39:16;;;;;;;;;10.50;9.50;;;;;;;;4950764;28;28557;-88
2022/04/01 01:41:42;;;;;;;;;10.60;10.60;;;;;;;;4950442;28;28306;-88
2022/04/01 01:44:07;;;;;;;;;9.00;9.00;;;;;;;;4949196;28;28785;-88
2022/04/01 01:46:34;;;;;;;;;8.00;8.00;;;;;;;;4949149;28;28537;-89
2022/04/01 01:48:59;;;;;;;;;8.00;8.00;;;;;;;;4950361;28;28398;-90
2022/04/01 01:56:52;;;;;;;;;9.25;9.25;;;;;;;;4957042;28;28458;-89
2022/04/01 01:59:18;;;;;;;;;11.00;10.00;;;;;;;;4951920;28;28406;-89
2022/04/01 02:01:43;;;;;;;;;10.50;10.50;;;;;;;;4952432;28;28346;-89
2022/04/01 02:04:09;;;;;;;;;9.75;9.75;;;;;;;;4952163;28;29701;-89
2022/04/01 02:06:34;;;;;;;;;10.00;9.00;;;;;;;;4951934;28;28073;-89
2022/04/01 02:09:00;;;;;;;;;9.00;9.00;;;;;;;;4942798;28;28399;-89
2022/04/01 02:11:25;;;;;;;;;10.75;10.75;;;;;;;;4932512;28;28189;-89
2022/04/01 02:13:51;;;;;;;;;11.00;10.25;;;;;;;;4950037;28;28360;-89
2022/04/01 02:16:16;;;;;;;;;9.67;8.33;;;;;;;;4948833;28;28728;-88
2022/04/01 02:18:41;;;;;;;;;10.75;10.75;;;;;;;;4940329;28;28415;-90
2022/04/01 02:21:16;;;;;;;;;10.25;10.25;;;;;;;;4933218;28;28611;-92
2022/04/01 02:23:43;;;;;;;;;10.75;10.75;;;;;;;;4933279;28;30326;-90
2022/04/01 02:26:08;;;;;;;;;11.75;11.75;;;;;;;;4952457;28;29458;-93
2022/04/01 02:28:34;;;;;;;;;9.50;9.50;;;;;;;;4933777;28;28215;-90
2022/04/01 02:30:59;;;;;;;;;8.25;8.25;;;;;;;;4924687;28;28631;-91
2022/04/01 02:33:25;;;;;;;;;10.00;9.00;;;;;;;;4935029;28;28447;-91
2022/04/01 02:35:50;;;;;;;;;9.25;9.25;;;;;;;;4917662;28;28307;-89
2022/04/01 02:38:15;;;;;;;;;9.00;8.00;;;;;;;;4919415;28;28343;-93
2022/04/01 02:40:41;;;;;;;;;10.00;10.00;;;;;;;;4917605;28;28154;-92
2022/04/01 02:43:06;;;;;;;;;8.00;8.00;;;;;;;;4934600;28;28293;-91
2022/04/01 02:45:31;;;;;;;;;9.00;9.00;;;;;;;;4917128;28;28631;-90
2022/04/01 02:47:56;;;;;;;;;9.75;9.75;;;;;;;;4917396;28;28502;-90
2022/04/01 02:50:21;;;;;;;;;8.67;8.67;;;;;;;;4917601;28;27943;-91
2022/04/01 02:52:47;;;;;;;;;9.00;9.00;;;;;;;;4934296;28;29175;-90
2022/04/01 02:55:12;;;;;;;;;9.75;9.75;;;;;;;;4913351;29;29337;-90
2022/04/01 02:57:38;;;;;;;;;10.75;10.75;;;;;;;;4932146;28;28575;-90
2022/04/01 03:00:09;;;;;;;;;12.00;11.00;;;;;;;;4944393;28;28441;-90
2022/04/01 03:02:34;;;;;;;;;11.00;11.00;;;;;;;;4932317;28;29908;-92
2022/04/01 03:04:59;;;;;;;;;11.75;10.75;;;;;;;;4935024;28;29522;-90
2022/04/01 03:07:25;;;;;;;;;13.00;13.00;;;;;;;;4935439;28;28296;-91
2022/04/01 03:09:50;;;;;;;;;10.00;10.00;;;;;;;;4946292;28;28489;-90
2022/04/01 03:12:16;;;;;;;;;10.00;9.00;;;;;;;;4923993;28;30605;-91
2022/04/01 03:14:41;;;;;;;;;10.00;10.00;;;;;;;;4946079;28;28163;-91
2022/04/01 03:17:08;;;;;;;;;11.67;11.67;;;;;;;;4952563;28;28336;-89
2022/04/01 03:19:35;;;;;;;;;11.50;11.50;;;;;;;;4935113;28;28724;-90
2022/04/01 03:22:00;;;;;;;;;11.75;11.75;;;;;;;;4952579;28;28398;-89
2022/04/01 03:24:26;;;;;;;;;11.50;11.50;;;;;;;;4952575;28;27822;-92
2022/04/01 03:26:51;;;;;;;;;11.00;11.00;;;;;;;;4923730;28;28443;-91
2022/04/01 03:29:16;;;;;;;;;17.00;13.00;;;;;;;;4943767;28;28452;-90
2022/04/01 03:31:42;;;;;;;;;11.75;10.50;;;;;;;;4934960;28;29727;-91
2022/04/01 03:34:08;;;;;;;;;17.75;14.50;;;;;;;;4967568;28;28500;-90
2022/04/01 03:36:36;;;;;;;;;10.50;10.50;;;;;;;;4934361;28;28476;-91
2022/04/01 03:39:03;;;;;;;;;13.25;11.75;;;;;;;;4920729;28;28319;-91
2022/04/01 03:41:30;;;;;;;;;15.40;15.40;;;;;;;;4914847;28;30974;-90
2022/04/01 03:43:55;;;;;;;;;13.00;13.00;;;;;;;;4922001;28;28359;-90
2022/04/01 03:46:22;;;;;;;;;13.25;11.75;;;;;;;;4952552;28;28382;-93
2022/04/01 03:48:59;;;;;;;;;12.00;12.00;;;;;;;;4935475;28;28712;-90
2022/04/01 03:51:25;;;;;;;;;10.25;10.25;;;;;;;;4952062;28;28357;-89
2022/04/01 03:53:55;;;;;;;;;10.00;10.00;;;;;;;;4952209;28;28544;-89
2022/04/01 03:56:22;;;;;;;;;11.80;10.60;;;;;;;;4951348;28;28456;-90
2022/04/01 03:58:48;;;;;;;;;12.00;11.75;;;;;;;;4951960;28;28457;-90
2022/04/01 04:01:13;;;;;;;;;10.00;9.00;;;;;;;;4935039;28;29909;-89
2022/04/01 04:03:38;;;;;;;;;10.00;10.00;;;;;;;;4934665;28;28668;-92
2022/04/01 04:06:09;;;;;;;;;12.75;11.00;;;;;;;;4934990;28;28481;-91
2022/04/01 04:08:36;;;;;;;;;10.60;10.60;;;;;;;;4934563;28;28401;-89
2022/04/01 04:11:03;;;;;;;;;11.33;11.33;;;;;;;;4951895;28;29077;-90
2022/04/01 04:13:29;;;;;;;;;9.00;9.00;;;;;;;;4934752;28;28453;-91
2022/04/01 04:16:00;;;;;;;;;12.00;10.75;;;;;;;;4951643;28;28556;-91
2022/04/01 04:18:32;;;;;;;;;9.25;9.25;;;;;;;;4930921;28;28508;-91
2022/04/01 04:21:11;;;;;;;;;9.00;9.00;;;;;;;;4932767;28;28580;-89
2022/04/01 04:23:45;;;;;;;;;9.00;9.00;;;;;;;;4918117;28;29576;-89
2022/04/01 04:26:16;;;;;;;;;10.60;10.60;;;;;;;;4941861;28;28582;-90
2022/04/01 04:28:46;;;;;;;;;9.40;9.40;;;;;;;;4951662;28;28410;-91
2022/04/01 04:31:12;;;;;;;;;9.20;9.20;;;;;;;;4965699;28;29134;-90
2022/04/01 04:33:44;;;;;;;;;8.80;8.80;;;;;;;;4970688;28;28410;-88
2022/04/01 04:36:11;;;;;;;;;9.50;9.25;;;;;;;;4970732;28;28393;-90
2022/04/01 04:38:37;;;;;;;;;7.00;7.00;;;;;;;;4953696;28;28403;-90
2022/04/01 04:41:08;;;;;;;;;10.80;10.80;;;;;;;;4969727;28;28349;-91
2022/04/01 04:43:34;;;;;;;;;8.75;8.75;;;;;;;;4971057;28;28416;-92
2022/04/01 04:46:00;;;;;;;;;9.75;9.75;;;;;;;;4971415;28;28559;-91
2022/04/01 04:48:27;;;;;;;;;8.00;8.00;;;;;;;;4962064;28;28445;-89
2022/04/01 04:50:53;;;;;;;;;10.00;8.00;;;;;;;;4951770;28;28607;-90
2022/04/01 04:53:19;;;;;;;;;11.25;10.00;;;;;;;;4933555;28;28468;-89
2022/04/01 04:55:47;;;;;;;;;10.80;7.60;;;;;;;;4951867;28;28931;-92
2022/04/01 04:58:12;;;;;;;;;8.00;8.00;;;;;;;;4951747;28;28970;-89
2022/04/01 05:00:39;;;;;;;;;8.00;8.00;;;;;;;;4952018;28;28673;-90
2022/04/01 05:03:07;;;;;;;;;9.40;9.00;;;;;;;;4941073;28;28509;-89
2022/04/01 05:05:42;;;;;;;;;8.75;8.75;;;;;;;;4952750;28;28272;-89
2022/04/01 05:08:15;;;;;;;;;9.75;8.00;;;;;;;;4968132;28;28313;-89
2022/04/01 05:10:41;;;;;;;;;9.00;7.00;;;;;;;;4950965;28;28367;-89
2022/04/01 05:13:25;;;;;;;;;6.00;6.00;;;;;;;;4951006;28;28576;-89
2022/04/01 05:15:56;;;;;;;;;8.75;8.75;;;;;;;;4950733;28;28464;-89
2022/04/01 05:18:29;;;;;;;;;6.00;6.00;;;;;;;;4950800;28;28571;-88
2022/04/01 05:20:55;;;;;;;;;10.75;7.50;;;;;;;;4948415;28;28798;-88
2022/04/01 05:23:44;;;;;;;;;8.80;8.80;;;;;;;;4970184;28;28402;-88
2022/04/01 05:26:13;;;;;;;;;9.00;8.75;;;;;;;;4969543;28;28431;-88
2022/04/01 05:28:40;;;;;;;;;8.25;8.25;;;;;;;;4952650;28;28315;-89
2022/04/01 05:31:20;;;;;;;;;10.00;10.00;;;;;;;;4958733;28;28458;-88
2022/04/01 05:33:56;;;;;;;;;10.00;9.00;;;;;;;;4958202;28;28486;-87
2022/04/01 05:36:23;;;;;;;;;9.25;9.25;;;;;;;;4950646;28;28567;-88
2022/04/01 05:38:48;;;;;;;;;9.60;9.00;;;;;;;;4950442;28;28338;-88
2022/04/01 05:41:19;;;;;;;;;8.67;8.67;;;;;;;;4932834;28;29828;-87
2022/04/01 05:43:46;;;;;;;;;11.00;11.00;;;;;;;;4950296;28;27839;-87
2022/04/01 05:46:11;;;;;;;;;9.00;9.00;;;;;;;;4949959;28;28468;-88
2022/04/01 05:48:38;;;;;;;;;9.00;9.00;;;;;;;;4950786;28;28458;-88
2022/04/01 05:51:05;;;;;;;;;10.25;10.00;;;;;;;;4960226;28;28267;-89
2022/04/01 05:53:32;;;;;;;;;8.80;8.80;;;;;;;;4969559;28;28467;-89
2022/04/01 05:55:58;;;;;;;;;9.80;9.80;;;;;;;;4952090;28;28527;-89
2022/04/01 05:58:23;;;;;;;;;11.00;10.00;;;;;;;;4965177;28;28641;-90
2022/04/01 06:01:07;;;;;;;;;11.33;11.33;;;;;;;;4950122;28;28425;-89
2022/04/01 06:03:44;;;;;;;;;12.80;9.60;;;;;;;;4950067;28;28391;-89
2022/04/01 06:06:12;;;;;;;;;9.50;9.50;;;;;;;;4953298;28;28614;-88
2022/04/01 06:08:44;;;;;;;;;11.00;9.25;;;;;;;;4935712;28;28483;-90
2022/04/01 06:11:22;;;;;;;;;11.50;10.50;;;;;;;;4953540;28;28428;-90
2022/04/01 06:13:47;;;;;;;;;11.00;11.00;;;;;;;;4953622;28;28374;-89
2022/04/01 06:16:12;;;;;;;;;10.00;10.00;;;;;;;;4953100;28;28427;-88
2022/04/01 06:18:38;;;;;;;;;10.75;10.75;;;;;;;;4953295;28;28430;-89
2022/04/01 06:21:04;;;;;;;;;10.75;10.75;;;;;;;;4953011;28;29898;-88
2022/04/01 06:23:35;;;;;;;;;12.00;12.00;;;;;;;;4953278;28;28513;-88
2022/04/01 06:26:00;;;;;;;;;10.40;9.80;;;;;;;;4961572;28;28457;-89
2022/04/01 06:28:30;;;;;;;;;11.00;11.00;;;;;;;;4972712;28;28326;-89
2022/04/01 06:31:03;;;;;;;;;10.00;10.00;;;;;;;;4954114;28;28461;-88
2022/04/01 06:33:32;;;;;;;;;12.00;12.00;;;;;;;;4956884;28;28256;-89
2022/04/01 06:36:01;;;;;;;;;15.00;13.80;;;;;;;;4952888;28;28489;-88
2022/04/01 06:38:29;;;;;;;;;15.00;10.20;;;;;;;;4935703;28;28369;-89
2022/04/01 06:41:04;;;;;;;;;11.00;11.00;;;;;;;;4976293;28;28814;-90
2022/04/01 06:43:29;;;;;;;;;12.40;12.40;;;;;;;;4972127;28;28436;-89
2022/04/01 06:45:54;;;;;;;;;13.50;12.00;;;;;;;;4972625;28;28363;-89
2022/04/01 06:48:20;;;;;;;;;12.00;11.00;;;;;;;;4972455;28;28345;-88
2022/04/01 06:50:49;;;;;;;;;15.33;14.33;;;;;;;;4954519;28;30296;-89
2022/04/01 06:53:15;;;;;;;;;13.67;13.67;;;;;;;;4954652;28;28497;-90
2022/04/01 06:55:40;;;;;;;;;13.00;13.00;;;;;;;;4971951;28;28367;-89
2022/04/01 06:58:11;;;;;;;;;11.00;11.00;;;;;;;;4955067;28;28587;-88
2022/04/01 07:00:36;;;;;;;;;14.80;14.80;;;;;;;;4954689;28;29779;-88
2022/04/01 07:03:01;;;;;;;;;12.75;12.00;;;;;;;;4989048;28;28386;-88
2022/04/01 07:05:27;;;;;;;;;13.33;13.33;;;;;;;;4972893;28;28585;-88
2022/04/01 07:07:53;;;;;;;;;17.20;13.00;;;;;;;;4972949;28;28521;-90
2022/04/01 07:10:18;;;;;;;;;17.25;16.00;;;;;;;;4972897;28;28997;-88
2022/04/01 07:12:43;;;;;;;;;13.67;12.00;;;;;;;;4972444;28;28441;-88
2022/04/01 07:15:10;;;;;;;;;16.00;15.25;;;;;;;;4974584;28;28579;-90
2022/04/01 07:17:39;;;;;;;;;15.00;15.00;;;;;;;;4986592;28;28550;-96
2022/04/01 07:20:04;;;;;;;;;14.00;12.50;;;;;;;;4948657;28;28488;-91
2022/04/01 07:22:29;;;;;;;;;13.00;12.00;;;;;;;;4934869;28;28699;-88
2022/04/01 07:24:55;;;;;;;;;11.00;11.00;;;;;;;;4974746;28;28488;-89
2022/04/01 07:27:21;;;;;;;;;16.00;14.67;;;;;;;;4991316;28;28414;-84
2022/04/01 07:29:46;;;;;;;;;16.00;13.50;;;;;;;;4990926;28;29225;-88
2022/04/01 07:32:31;;;;;;;;;14.00;14.00;;;;;;;;4955768;28;28431;-88
2022/04/01 07:34:57;;;;;;;;;12.80;12.80;;;;;;;;4934561;28;28526;-90
2022/04/01 07:37:24;;;;;;;;;14.25;12.75;;;;;;;;4956160;28;28145;-89
2022/04/01 07:39:51;;;;;;;;;14.00;14.00;;;;;;;;4952428;28;28820;-90
2022/04/01 07:42:18;;;;;;;;;16.20;14.20;;;;;;;;4951969;28;28349;-88
2022/04/01 07:44:43;;;;;;;;;15.00;12.20;;;;;;;;4951648;28;28362;-86
2022/04/01 07:47:09;;;;;;;;;15.33;15.33;;;;;;;;4952422;28;28335;-88
2022/04/01 07:49:37;;;;;;;;;12.60;12.60;;;;;;;;4951589;28;28349;-87
2022/04/01 07:52:08;;;;;;;;;12.75;12.75;;;;;;;;4951800;28;28566;-87
2022/04/01 07:54:36;;;;;;;;;13.80;13.20;;;;;;;;4950973;28;27728;-94
2022/04/01 07:57:02;;;;;;;;;13.00;13.00;;;;;;;;4956335;28;28604;-87
2022/04/01 07:59:28;;;;;;;;;14.00;14.00;;;;;;;;4951993;28;28504;-89
2022/04/01 08:01:53;;;;;;;;;16.25;16.25;;;;;;;;4965403;28;28426;-87
2022/04/01 08:04:18;;;;;;;;;17.00;14.50;;;;;;;;4968939;28;28368;-88
2022/04/01 08:06:44;;;;;;;;;16.75;15.50;;;;;;;;4951828;28;28323;-86
2022/04/01 08:09:09;;;;;;;;;14.50;13.75;;;;;;;;4952186;28;28465;-92
2022/04/01 08:11:34;;;;;;;;;13.00;13.00;;;;;;;;4963833;28;28433;-90
2022/04/01 08:14:00;;;;;;;;;13.00;13.00;;;;;;;;4962262;28;28457;-88
2022/04/01 08:16:25;;;;;;;;;16.00;14.00;;;;;;;;4951618;28;28390;-89
2022/04/01 08:18:50;;;;;;;;;19.25;18.00;;;;;;;;4934257;28;28320;-89
2022/04/01 08:21:16;;;;;;;;;16.00;14.00;;;;;;;;4951493;28;28479;-88
2022/04/01 08:23:41;;;;;;;;;12.75;12.75;;;;;;;;4951875;28;28451;-88
2022/04/01 08:26:07;;;;;;;;;14.75;14.00;;;;;;;;4942810;28;27871;-87
2022/04/01 08:28:33;;;;;;;;;12.67;12.00;;;;;;;;4957204;28;29430;-88
2022/04/01 08:30:58;;;;;;;;;13.00;12.00;;;;;;;;4951697;28;28760;-86
2022/04/01 08:33:23;;;;;;;;;14.00;14.00;;;;;;;;4952612;28;28244;-90
2022/04/01 08:35:50;;;;;;;;;15.50;13.00;;;;;;;;4936812;28;28501;-93
2022/04/01 08:38:15;;;;;;;;;14.40;14.40;;;;;;;;4935120;28;29972;-88
2022/04/01 08:40:40;;;;;;;;;15.50;14.50;;;;;;;;4958798;28;28268;-89
2022/04/01 08:43:06;;;;;;;;;14.50;14.00;;;;;;;;4953081;28;28315;-87
2022/04/01 08:45:33;;;;;;;;;14.75;13.00;;;;;;;;4954441;28;28900;-89
2022/04/01 08:47:58;;;;;;;;;20.75;18.75;;;;;;;;4952491;28;29292;-89
2022/04/01 08:50:24;;;;;;;;;15.00;15.00;;;;;;;;4952747;28;28461;-89
2022/04/01 08:52:49;;;;;;;;;14.00;12.00;;;;;;;;4953161;28;28346;-89
2022/04/01 08:55:14;;;;;;;;;13.67;13.67;;;;;;;;4969651;28;28389;-87
2022/04/01 08:57:40;;;;;;;;;14.00;14.00;;;;;;;;4967396;28;29740;-88
2022/04/01 09:00:14;;;;;;;;;12.80;12.40;;;;;;;;4970601;28;28353;-89
2022/04/01 09:02:41;;;;;;;;;14.20;13.00;;;;;;;;4949741;28;28355;-89
2022/04/01 09:05:07;;;;;;;;;15.40;14.00;;;;;;;;4933533;28;28586;-89
2022/04/01 09:07:32;;;;;;;;;14.00;14.00;;;;;;;;4944412;28;31342;-90
2022/04/01 09:10:02;;;;;;;;;15.50;14.50;;;;;;;;4948806;28;28321;-90
2022/04/01 09:12:28;;;;;;;;;13.50;12.50;;;;;;;;4951003;28;28442;-89
2022/04/01 09:14:54;;;;;;;;;17.20;14.80;;;;;;;;4951023;28;28395;-89
2022/04/01 09:17:19;;;;;;;;;19.00;15.50;;;;;;;;4950683;28;28475;-90
2022/04/01 09:19:46;;;;;;;;;16.50;16.50;;;;;;;;4950954;28;28564;-89
2022/04/01 09:22:16;;;;;;;;;16.33;13.33;;;;;;;;4950545;28;28478;-89
2022/04/01 09:24:59;;;;;;;;;13.00;12.00;;;;;;;;4950757;28;28255;-90
2022/04/01 09:27:44;;;;;;;;;13.20;11.40;;;;;;;;4933455;28;28452;-88
2022/04/01 09:30:11;;;;;;;;;10.00;10.00;;;;;;;;4951473;28;28382;-88
2022/04/01 09:32:41;;;;;;;;;12.00;10.25;;;;;;;;4940665;28;28345;-87
2022/04/01 09:35:07;;;;;;;;;13.00;13.00;;;;;;;;4950448;28;28299;-87
2022/04/01 09:37:36;;;;;;;;;10.20;10.20;;;;;;;;4953130;28;28717;-88
2022/04/01 09:40:01;;;;;;;;;13.67;12.00;;;;;;;;4966231;28;28330;-87
2022/04/01 09:42:26;;;;;;;;;11.00;11.00;;;;;;;;4950566;28;28300;-87
2022/04/01 09:44:57;;;;;;;;;12.67;11.00;;;;;;;;4953178;28;28946;-87
2022/04/01 09:47:22;;;;;;;;;13.40;12.80;;;;;;;;4968909;28;29653;-89
2022/04/01 09:49:48;;;;;;;;;17.00;17.00;;;;;;;;4952593;28;28451;-87
2022/04/01 09:52:15;;;;;;;;;12.00;12.00;;;;;;;;4951051;28;28374;-87
2022/04/01 09:54:51;;;;;;;;;14.75;12.50;;;;;;;;4955557;28;28480;-89
2022/04/01 09:57:17;;;;;;;;;14.67;13.00;;;;;;;;4968758;28;29080;-89
2022/04/01 09:59:43;;;;;;;;;15.00;13.25;;;;;;;;4969499;28;28509;-88
2022/04/01 10:02:09;;;;;;;;;11.00;11.00;;;;;;;;4969760;28;28448;-90
2022/04/01 10:04:34;;;;;;;;;12.00;12.00;;;;;;;;4952332;28;28621;-89
2022/04/01 10:07:01;;;;;;;;;13.25;12.25;;;;;;;;4969378;28;29410;-81
2022/04/01 10:09:26;;;;;;;;;11.20;11.20;;;;;;;;4969093;28;28560;-80
2022/04/01 10:11:52;;;;;;;;;14.33;13.33;;;;;;;;4969325;28;27867;-83
2022/04/01 10:14:23;;;;;;;;;10.00;10.00;;;;;;;;4969719;28;28371;-85
2022/04/01 10:16:49;;;;;;;;;12.00;10.00;;;;;;;;4957885;28;29239;-86
2022/04/01 10:19:21;;;;;;;;;12.20;12.20;;;;;;;;4969178;28;28556;-91
2022/04/01 10:21:46;;;;;;;;;13.00;12.00;;;;;;;;4970146;28;28292;-85
2022/04/01 10:24:21;;;;;;;;;11.00;11.00;;;;;;;;4968876;28;28539;-86
2022/04/01 10:26:56;;;;;;;;;10.00;10.00;;;;;;;;4969165;28;29529;-85
2022/04/01 10:29:21;;;;;;;;;9.20;9.20;;;;;;;;4970780;28;28535;-84
2022/04/01 10:32:15;;;;;;;;;9.00;9.00;;;;;;;;4969715;28;28319;-85
2022/04/01 10:34:47;;;;;;;;;6.20;6.20;;;;;;;;4971232;28;28354;-87
2022/04/01 10:37:13;;;;;;;;;9.80;9.80;;;;;;;;4951893;28;28939;-85
2022/04/01 10:39:55;;;;;;;;;11.00;9.50;;;;;;;;4970383;28;28314;-87
2022/04/01 10:42:30;;;;;;;;;10.25;7.50;;;;;;;;4952903;28;28340;-89
2022/04/01 10:44:57;;;;;;;;;7.50;7.50;;;;;;;;4965412;28;28358;-92
2022/04/01 10:47:24;;;;;;;;;8.00;8.00;;;;;;;;4954331;28;30715;-91
2022/04/01 10:52:34;;;;;;;;;9.75;9.50;;;;;;;;4966870;28;28339;-90
2022/04/01 10:55:02;;;;;;;;;12.40;12.40;;;;;;;;4937322;28;28374;-90
2022/04/01 10:57:32;;;;;;;;;14.00;12.75;;;;;;;;4971280;28;28399;-91
2022/04/01 11:00:04;;;;;;;;;11.00;11.00;;;;;;;;4956869;28;28548;-90
2022/04/01 11:02:29;;;;;;;;;13.00;11.60;;;;;;;;4954712;28;28501;-91
2022/04/01 11:04:55;;;;;;;;;8.00;8.00;;;;;;;;4973258;28;28680;-91
2022/04/01 11:07:23;;;;;;;;;9.75;8.00;;;;;;;;4956929;28;28641;-90
2022/04/01 11:09:55;;;;;;;;;12.00;9.00;;;;;;;;4948576;28;29562;-92
2022/04/01 11:12:21;;;;;;;;;9.00;9.00;;;;;;;;4974490;28;28475;-93
2022/04/01 11:15:19;;;;;;;;;6.25;6.25;;;;;;;;4958933;28;28295;-91
2022/04/01 11:17:44;;;;;;;;;7.00;7.00;;;;;;;;4958225;28;29834;-92
2022/04/01 11:20:09;;;;;;;;;6.67;6.67;;;;;;;;4958173;28;29411;-93
2022/04/01 11:22:36;;;;;;;;;6.25;6.25;;;;;;;;4957707;28;28323;-92
2022/04/01 11:25:01;;;;;;;;;7.60;6.00;;;;;;;;4949262;28;28455;-92
2022/04/01 11:27:27;;;;;;;;;6.00;5.00;;;;;;;;4939120;28;30042;-90
2022/04/01 11:30:14;;;;;;;;;7.00;6.00;;;;;;;;4939766;28;27829;-93
2022/04/01 11:32:41;;;;;;;;;6.25;6.25;;;;;;;;4940360;28;28585;-91
2022/04/01 11:35:11;;;;;;;;;6.75;6.75;;;;;;;;4940859;28;28454;-93
2022/04/01 11:37:37;;;;;;;;;8.00;8.00;;;;;;;;4940000;28;29841;-93
2022/04/01 11:40:14;;;;;;;;;6.75;5.75;;;;;;;;4942340;28;28941;-86
2022/04/01 11:42:52;;;;;;;;;6.75;6.00;;;;;;;;4956047;28;28965;-86
2022/04/01 11:45:18;;;;;;;;;7.00;7.00;;;;;;;;4958002;28;28529;-87
2022/04/01 11:47:43;;;;;;;;;6.00;6.00;;;;;;;;4942872;28;28551;-87
2022/04/01 11:50:09;;;;;;;;;7.75;7.75;;;;;;;;4954655;28;28415;-90
2022/04/01 11:52:44;;;;;;;;;5.00;5.00;;;;;;;;4960680;28;28403;-82
2022/04/01 11:55:11;;;;;;;;;5.00;5.00;;;;;;;;4954908;28;28300;-84
2022/04/01 11:57:36;;;;;;;;;6.00;6.00;;;;;;;;4953439;28;28286;-89
2022/04/01 12:00:02;;;;;;;;;6.00;6.00;;;;;;;;4953896;28;28198;-87
2022/04/01 12:02:28;;;;;;;;;4.00;4.00;;;;;;;;4952968;28;28467;-88
2022/04/01 12:04:53;;;;;;;;;7.80;6.80;;;;;;;;4955652;28;28457;-91
2022/04/01 12:10:04;;;;;;;;;6.25;6.25;;;;;;;;4978105;28;27900;-89
2022/04/01 12:12:30;;;;;;;;;5.00;5.00;;;;;;;;4951329;28;28857;-88
2022/04/01 12:14:57;;;;;;;;;6.00;6.00;;;;;;;;4953148;28;28639;-90
2022/04/01 12:17:22;;;;;;;;;8.75;6.75;;;;;;;;4952183;28;28671;-87
2022/04/01 12:19:48;;;;;;;;;5.50;5.50;;;;;;;;4934355;28;28395;-89
2022/04/01 12:22:13;;;;;;;;;3.00;3.00;;;;;;;;4959606;28;27821;-89
2022/04/01 12:24:39;;;;;;;;;4.00;4.00;;;;;;;;4972353;28;28802;-91
2022/04/01 12:27:09;;;;;;;;;5.00;5.00;;;;;;;;4956682;28;29965;-90
2022/04/01 12:29:35;;;;;;;;;5.50;5.50;;;;;;;;4953159;28;28353;-89
2022/04/01 12:32:02;;;;;;;;;5.67;5.67;;;;;;;;4971028;28;28560;-89
2022/04/01 12:34:28;;;;;;;;;4.50;4.00;;;;;;;;4971584;28;28752;-89
2022/04/01 12:36:55;;;;;;;;;6.00;6.00;;;;;;;;4970639;28;28318;-89
2022/04/01 12:39:20;;;;;;;;;5.00;5.00;;;;;;;;4971680;28;28401;-89
2022/04/01 12:41:53;;;;;;;;;4.75;4.75;;;;;;;;4971942;28;28439;-89
2022/04/01 12:44:21;;;;;;;;;6.00;6.00;;;;;;;;4971961;28;28264;-89
2022/04/01 12:46:48;;;;;;;;;4.00;4.00;;;;;;;;4969170;28;28278;-89
2022/04/01 12:49:15;;;;;;;;;6.00;6.00;;;;;;;;4941359;28;28113;-90
2022/04/01 12:51:48;;;;;;;;;5.60;5.60;;;;;;;;4934524;28;27861;-89
2022/04/01 12:54:22;;;;;;;;;6.75;6.75;;;;;;;;4951150;28;28650;-92
2022/04/01 12:56:51;;;;;;;;;4.00;4.00;;;;;;;;4954349;28;28469;-91
2022/04/01 12:59:18;;;;;;;;;7.75;7.75;;;;;;;;4934715;28;28598;-89
2022/04/01 13:01:45;;;;;;;;;5.75;5.75;;;;;;;;4958307;28;28410;-87
2022/04/01 13:04:17;;;;;;;;;6.00;6.00;;;;;;;;4939196;28;28519;-89
2022/04/01 13:07:02;;;;;;;;;8.25;8.25;;;;;;;;4962976;28;29555;-88
2022/04/01 13:09:28;;;;;;;;;8.80;6.20;;;;;;;;4969307;28;28333;-87
2022/04/01 13:11:56;;;;;;;;;7.00;6.00;;;;;;;;4964500;28;27947;-88
2022/04/01 13:14:23;;;;;;;;;7.50;6.00;;;;;;;;4949894;28;28413;-87
2022/04/01 13:16:50;;;;;;;;;6.00;6.00;;;;;;;;4972217;28;28519;-88
2022/04/01 13:19:26;;;;;;;;;6.00;6.00;;;;;;;;4952893;28;28469;-90
2022/04/01 13:21:52;;;;;;;;;6.00;6.00;;;;;;;;4971552;28;28487;-88
2022/04/01 13:24:18;;;;;;;;;7.20;7.00;;;;;;;;4970230;28;28493;-89
2022/04/01 13:26:43;;;;;;;;;6.00;6.00;;;;;;;;4952768;28;30829;-89
2022/04/01 13:29:09;;;;;;;;;5.25;5.25;;;;;;;;4970305;28;28524;-90
2022/04/01 13:31:34;;;;;;;;;6.00;6.00;;;;;;;;4971591;28;28448;-88
2022/04/01 13:33:59;;;;;;;;;9.00;7.75;;;;;;;;4989826;28;28332;-87
2022/04/01 13:36:24;;;;;;;;;6.25;6.25;;;;;;;;4989975;28;28551;-89
2022/04/01 13:38:50;;;;;;;;;6.75;6.75;;;;;;;;4992537;28;27723;-93
2022/04/01 13:41:15;;;;;;;;;7.00;7.00;;;;;;;;4991626;28;28549;-90
2022/04/01 13:43:40;;;;;;;;;7.00;7.00;;;;;;;;4973418;28;28275;-91
2022/04/01 13:46:07;;;;;;;;;7.00;7.00;;;;;;;;4954859;28;29991;-94
2022/04/01 13:48:32;;;;;;;;;6.75;6.75;;;;;;;;4955215;28;29412;-92
2022/04/01 13:50:57;;;;;;;;;7.00;5.25;;;;;;;;4965183;28;28425;-87
2022/04/01 13:53:22;;;;;;;;;6.00;4.33;;;;;;;;4966955;28;28719;-88
2022/04/01 13:55:48;;;;;;;;;5.00;5.00;;;;;;;;4955484;28;28532;-89
2022/04/01 13:58:14;;;;;;;;;6.00;6.00;;;;;;;;4959717;28;28502;-87
2022/04/01 14:00:40;;;;;;;;;4.25;4.25;;;;;;;;4950891;28;28342;-87
2022/04/01 14:03:06;;;;;;;;;5.00;5.00;;;;;;;;4961763;28;28759;-89
2022/04/01 14:05:33;;;;;;;;;5.00;5.00;;;;;;;;4958198;28;28848;-89
2022/04/01 14:07:58;;;;;;;;;5.75;5.75;;;;;;;;4965817;28;28473;-88
2022/04/01 14:10:23;;;;;;;;;6.00;6.00;;;;;;;;4972376;28;28457;-88
2022/04/01 14:12:48;;;;;;;;;5.00;5.00;;;;;;;;4980475;28;28589;-93
2022/04/01 14:15:14;;;;;;;;;7.00;7.00;;;;;;;;4990842;28;29741;-89
2022/04/01 14:17:39;;;;;;;;;6.00;6.00;;;;;;;;4975737;28;28409;-92
2022/04/01 14:20:05;;;;;;;;;9.00;7.00;;;;;;;;4933890;28;28260;-89
2022/04/01 14:22:30;;;;;;;;;7.00;7.00;;;;;;;;4962829;28;28358;-88
2022/04/01 14:24:55;;;;;;;;;6.75;6.75;;;;;;;;4956380;28;29877;-87
2022/04/01 14:27:24;;;;;;;;;5.00;5.00;;;;;;;;4976744;28;28326;-91
2022/04/01 14:32:33;;;;;;;;;8.60;8.60;;;;;;;;4974512;28;28233;-90
2022/04/01 14:34:59;;;;;;;;;7.00;7.00;;;;;;;;4936250;28;29700;-90
2022/04/01 14:37:24;;;;;;;;;9.75;8.50;;;;;;;;4959778;28;28760;-95
2022/04/01 14:39:49;;;;;;;;;7.00;7.00;;;;;;;;4940812;28;27829;-89
2022/04/01 14:42:15;;;;;;;;;8.00;8.00;;;;;;;;4964047;28;28461;-90
2022/04/01 14:44:40;;;;;;;;;8.00;8.00;;;;;;;;4955456;28;30248;-92